createdAt,value
2017-10-21T00:00:00.853Z,6.00
2017-10-21T00:01:01.564Z,4.00
2017-10-21T00:02:02.286Z,5.00
2017-10-21T00:03:02.994Z,5.00
2017-10-21T00:04:03.715Z,5.00
2017-10-21T00:05:04.435Z,5.00
2017-10-21T00:06:05.144Z,6.00
2017-10-21T00:07:05.853Z,6.00
2017-10-21T00:08:06.561Z,4.00
2017-10-21T00:09:07.286Z,5.00
2017-10-21T00:10:08.005Z,6.00
2017-10-21T00:11:08.728Z,6.00
2017-10-21T00:12:09.440Z,4.00
2017-10-21T00:13:10.144Z,4.00
2017-10-21T00:14:10.864Z,4.00
2017-10-21T00:15:11.574Z,5.00
2017-10-21T00:16:12.282Z,5.00
2017-10-21T00:17:12.990Z,4.00
2017-10-21T00:18:13.697Z,5.00
2017-10-21T00:19:14.417Z,4.00
2017-10-21T00:20:15.123Z,4.00
2017-10-21T00:21:15.845Z,5.00
2017-10-21T00:22:16.553Z,6.00
2017-10-21T00:23:17.261Z,4.00
2017-10-21T00:24:17.969Z,6.00
2017-10-21T00:25:18.678Z,4.00
2017-10-21T00:26:19.637Z,5.00
2017-10-21T00:27:20.360Z,5.00
2017-10-21T00:28:21.071Z,5.00
2017-10-21T00:29:21.781Z,5.00
2017-10-21T00:30:22.492Z,6.00
2017-10-21T00:31:23.453Z,6.00
2017-10-21T00:32:24.164Z,4.00
2017-10-21T00:33:24.872Z,5.00
2017-10-21T00:34:25.582Z,5.00
2017-10-21T00:35:26.293Z,5.00
2017-10-21T00:36:27.015Z,4.00
2017-10-21T00:37:27.721Z,5.00
2017-10-21T00:38:28.431Z,5.00
2017-10-21T00:39:29.139Z,5.00
2017-10-21T00:40:29.860Z,5.00
2017-10-21T00:41:30.581Z,4.00
2017-10-21T00:42:31.288Z,5.00
2017-10-21T00:43:32.007Z,5.00
2017-10-21T00:44:32.728Z,4.00
2017-10-21T00:45:33.438Z,4.00
2017-10-21T00:46:34.144Z,4.00
2017-10-21T00:47:34.867Z,4.00
2017-10-21T00:48:35.573Z,4.00
2017-10-21T00:49:36.281Z,4.00
2017-10-21T00:50:36.988Z,4.00
2017-10-21T00:51:37.695Z,4.00
2017-10-21T00:52:38.405Z,6.00
2017-10-21T00:53:39.113Z,4.00
2017-10-21T00:54:39.823Z,4.00
2017-10-21T00:55:40.543Z,4.00
2017-10-21T00:56:41.251Z,5.00
2017-10-21T00:57:41.969Z,4.00
2017-10-21T00:58:42.679Z,5.00
2017-10-21T00:59:43.399Z,5.00
2017-10-21T01:00:44.106Z,5.00
2017-10-21T01:01:44.814Z,5.00
2017-10-21T01:02:45.523Z,4.00
2017-10-21T01:03:46.242Z,4.00
2017-10-21T01:04:46.962Z,4.00
2017-10-21T01:05:47.671Z,4.00
2017-10-21T01:06:48.382Z,5.00
2017-10-21T01:07:49.089Z,4.00
2017-10-21T01:08:49.811Z,4.00
2017-10-21T01:09:50.516Z,5.00
2017-10-21T01:10:51.221Z,4.00
2017-10-21T01:11:51.930Z,5.00
2017-10-21T01:12:52.652Z,5.00
2017-10-21T01:13:53.361Z,4.00
2017-10-21T01:14:54.069Z,5.00
2017-10-21T01:15:54.776Z,4.00
2017-10-21T01:16:55.486Z,6.00
2017-10-21T01:17:56.200Z,5.00
2017-10-21T01:18:56.904Z,5.00
2017-10-21T01:19:57.612Z,5.00
2017-10-21T01:20:58.322Z,5.00
2017-10-21T01:21:59.037Z,4.00
2017-10-21T01:22:59.737Z,4.00
2017-10-21T01:24:00.445Z,5.00
2017-10-21T01:25:01.153Z,4.00
2017-10-21T01:26:01.859Z,4.00
2017-10-21T01:27:02.567Z,4.00
2017-10-21T01:28:03.275Z,5.00
2017-10-21T01:29:03.994Z,4.00
2017-10-21T01:30:04.702Z,4.00
2017-10-21T01:31:05.421Z,5.00
2017-10-21T01:32:06.142Z,5.00
2017-10-21T01:33:06.850Z,5.00
2017-10-21T01:34:07.557Z,6.00
2017-10-21T01:35:08.264Z,4.00
2017-10-21T01:36:08.973Z,6.00
2017-10-21T01:37:09.688Z,4.00
2017-10-21T01:38:10.391Z,5.00
2017-10-21T01:39:11.099Z,4.00
2017-10-21T01:40:11.808Z,7.00
2017-10-21T01:41:12.515Z,6.00
2017-10-21T01:42:13.225Z,6.00
2017-10-21T01:43:13.945Z,5.00
2017-10-21T01:44:14.672Z,4.00
2017-10-21T01:45:15.385Z,4.00
2017-10-21T01:46:16.092Z,4.00
2017-10-21T01:47:16.810Z,4.00
2017-10-21T01:48:17.522Z,6.00
2017-10-21T01:49:18.241Z,4.00
2017-10-21T01:50:18.950Z,5.00
2017-10-21T01:51:19.659Z,4.00
2017-10-21T01:52:20.368Z,4.00
2017-10-21T01:53:21.078Z,4.00
2017-10-21T01:54:21.787Z,5.00
2017-10-21T01:55:22.509Z,4.00
2017-10-21T01:56:23.220Z,5.00
2017-10-21T01:57:23.929Z,5.00
2017-10-21T01:58:24.635Z,5.00
2017-10-21T01:59:25.346Z,4.00
2017-10-21T02:00:26.068Z,5.00
2017-10-21T02:01:26.775Z,4.00
2017-10-21T02:02:27.482Z,5.00
2017-10-21T02:03:28.191Z,5.00
2017-10-21T02:04:28.899Z,4.00
2017-10-21T02:05:29.605Z,5.00
2017-10-21T02:06:30.313Z,4.00
2017-10-21T02:07:31.034Z,5.00
2017-10-21T02:08:31.754Z,4.00
2017-10-21T02:09:32.479Z,6.00
2017-10-21T02:10:33.188Z,5.00
2017-10-21T02:11:33.897Z,5.00
2017-10-21T02:12:34.607Z,4.00
2017-10-21T02:13:35.316Z,4.00
2017-10-21T02:14:36.037Z,5.00
2017-10-21T02:15:36.744Z,4.00
2017-10-21T02:16:37.464Z,6.00
2017-10-21T02:17:38.174Z,4.00
2017-10-21T02:18:38.882Z,5.00
2017-10-21T02:19:39.591Z,5.00
2017-10-21T02:20:40.301Z,5.00
2017-10-21T02:21:41.022Z,5.00
2017-10-21T02:22:41.730Z,4.00
2017-10-21T02:23:42.437Z,4.00
2017-10-21T02:24:43.144Z,5.00
2017-10-21T02:25:43.858Z,5.00
2017-10-21T02:26:44.562Z,5.00
2017-10-21T02:27:45.271Z,5.00
2017-10-21T02:30:01.208Z,5.00
2017-10-21T02:31:01.909Z,4.00
2017-10-21T02:32:02.616Z,4.00
2017-10-21T02:33:03.326Z,4.00
2017-10-21T02:34:04.037Z,5.00
2017-10-21T02:35:04.744Z,4.00
2017-10-21T02:36:05.465Z,5.00
2017-10-21T02:37:06.174Z,5.00
2017-10-21T02:38:06.884Z,6.00
2017-10-21T02:39:07.593Z,4.00
2017-10-21T02:40:08.303Z,6.00
2017-10-21T02:41:09.012Z,5.00
2017-10-21T02:42:09.722Z,7.00
2017-10-21T02:43:10.436Z,5.00
2017-10-21T02:44:11.153Z,5.00
2017-10-21T02:45:11.859Z,6.00
2017-10-21T02:46:12.566Z,6.00
2017-10-21T02:47:13.279Z,5.00
2017-10-21T02:48:13.982Z,6.00
2017-10-21T02:49:14.690Z,5.00
2017-10-21T02:50:15.399Z,6.00
2017-10-21T02:51:16.117Z,6.00
2017-10-21T02:52:16.846Z,7.00
2017-10-21T02:53:17.547Z,5.00
2017-10-21T02:54:18.255Z,5.00
2017-10-21T02:55:18.963Z,5.00
2017-10-21T02:56:19.673Z,5.00
2017-10-21T02:57:20.390Z,5.00
2017-10-21T02:58:21.112Z,5.00
2017-10-21T02:59:21.834Z,4.00
2017-10-21T03:00:22.553Z,5.00
2017-10-21T03:01:23.262Z,6.00
2017-10-21T03:02:23.971Z,5.00
2017-10-21T03:03:24.680Z,5.00
2017-10-21T03:04:25.388Z,5.00
2017-10-21T03:05:26.098Z,6.00
2017-10-21T03:06:26.805Z,4.00
2017-10-21T03:07:27.514Z,5.00
2017-10-21T03:08:28.235Z,5.00
2017-10-21T03:09:28.945Z,6.00
2017-10-21T03:10:29.671Z,5.00
2017-10-21T03:11:30.379Z,4.00
2017-10-21T03:12:31.102Z,4.00
2017-10-21T03:13:31.820Z,5.00
2017-10-21T03:14:32.543Z,5.00
2017-10-21T03:15:33.267Z,7.00
2017-10-21T03:16:33.975Z,6.00
2017-10-21T03:17:34.697Z,5.00
2017-10-21T03:18:35.448Z,5.00
2017-10-21T03:19:36.157Z,6.00
2017-10-21T03:20:36.867Z,4.00
2017-10-21T03:21:37.576Z,4.00
2017-10-21T03:22:38.288Z,5.00
2017-10-21T03:23:38.997Z,4.00
2017-10-21T03:24:39.718Z,4.00
2017-10-21T03:25:40.429Z,4.00
2017-10-21T03:26:41.139Z,4.00
2017-10-21T03:27:41.862Z,4.00
2017-10-21T03:28:42.573Z,5.00
2017-10-21T03:29:43.284Z,5.00
2017-10-21T03:30:43.993Z,5.00
2017-10-21T03:31:44.701Z,4.00
2017-10-21T03:32:45.410Z,5.00
2017-10-21T03:33:46.118Z,4.00
2017-10-21T03:34:46.838Z,4.00
2017-10-21T03:35:47.561Z,5.00
2017-10-21T03:36:48.273Z,5.00
2017-10-21T03:37:48.983Z,5.00
2017-10-21T03:38:49.694Z,5.00
2017-10-21T03:39:50.404Z,4.00
2017-10-21T03:40:51.118Z,4.00
2017-10-21T03:41:51.825Z,3.00
2017-10-21T03:42:52.534Z,5.00
2017-10-21T03:43:53.245Z,5.00
2017-10-21T03:44:53.955Z,4.00
2017-10-21T03:45:54.663Z,4.00
2017-10-21T03:46:55.387Z,4.00
2017-10-21T03:47:56.110Z,5.00
2017-10-21T03:48:56.819Z,6.00
2017-10-21T03:49:57.543Z,5.00
2017-10-21T03:50:58.251Z,5.00
2017-10-21T03:51:58.974Z,4.00
2017-10-21T03:52:59.685Z,5.00
2017-10-21T03:54:00.398Z,5.00
2017-10-21T03:55:01.120Z,6.00
2017-10-21T03:56:01.829Z,3.00
2017-10-21T03:57:02.536Z,4.00
2017-10-21T03:58:03.245Z,5.00
2017-10-21T03:59:03.953Z,4.00
2017-10-21T04:00:04.662Z,4.00
2017-10-21T04:01:05.386Z,4.00
2017-10-21T04:02:06.111Z,6.00
2017-10-21T04:03:06.834Z,4.00
2017-10-21T04:04:07.545Z,4.00
2017-10-21T04:05:08.254Z,5.00
2017-10-21T04:06:08.963Z,4.00
2017-10-21T04:07:09.673Z,5.00
2017-10-21T04:08:10.383Z,4.00
2017-10-21T04:09:11.091Z,5.00
2017-10-21T04:10:11.800Z,4.00
2017-10-21T04:11:12.510Z,5.00
2017-10-21T04:12:13.219Z,4.00
2017-10-21T04:13:13.930Z,5.00
2017-10-21T04:14:14.638Z,4.00
2017-10-21T04:15:15.347Z,4.00
2017-10-21T04:16:16.061Z,6.00
2017-10-21T04:17:16.765Z,4.00
2017-10-21T04:18:17.478Z,4.00
2017-10-21T04:19:18.201Z,5.00
2017-10-21T04:20:18.929Z,4.00
2017-10-21T04:21:19.650Z,5.00
2017-10-21T04:22:20.358Z,4.00
2017-10-21T04:23:21.066Z,4.00
2017-10-21T04:24:21.776Z,4.00
2017-10-21T04:25:22.484Z,3.00
2017-10-21T04:26:23.193Z,4.00
2017-10-21T04:27:23.901Z,4.00
2017-10-21T04:28:24.612Z,4.00
2017-10-21T04:29:25.320Z,3.00
2017-10-21T04:30:26.031Z,5.00
2017-10-21T04:31:26.740Z,4.00
2017-10-21T04:32:27.464Z,4.00
2017-10-21T04:33:28.172Z,4.00
2017-10-21T04:34:28.894Z,4.00
2017-10-21T04:35:29.604Z,5.00
2017-10-21T04:36:30.315Z,5.00
2017-10-21T04:37:31.031Z,5.00
2017-10-21T04:38:31.734Z,5.00
2017-10-21T04:39:32.443Z,4.00
2017-10-21T04:40:33.152Z,4.00
2017-10-21T04:41:33.863Z,6.00
2017-10-21T04:42:34.576Z,4.00
2017-10-21T04:43:35.284Z,4.00
2017-10-21T04:44:35.994Z,4.00
2017-10-21T04:45:36.705Z,5.00
2017-10-21T04:46:37.416Z,4.00
2017-10-21T04:47:38.139Z,4.00
2017-10-21T04:48:38.850Z,5.00
2017-10-21T04:49:39.562Z,5.00
2017-10-21T04:50:40.273Z,4.00
2017-10-21T04:51:40.981Z,4.00
2017-10-21T04:52:41.693Z,4.00
2017-10-21T04:53:42.402Z,4.00
2017-10-21T04:54:43.123Z,4.00
2017-10-21T04:55:43.833Z,5.00
2017-10-21T04:56:44.542Z,4.00
2017-10-21T04:57:45.266Z,5.00
2017-10-21T04:58:45.977Z,5.00
2017-10-21T04:59:46.686Z,5.00
2017-10-21T05:00:47.394Z,5.00
2017-10-21T05:01:48.119Z,4.00
2017-10-21T05:02:48.841Z,5.00
2017-10-21T05:03:49.550Z,3.00
2017-10-21T05:04:50.260Z,4.00
2017-10-21T05:05:50.982Z,5.00
2017-10-21T05:06:51.692Z,3.00
2017-10-21T05:07:52.403Z,5.00
2017-10-21T05:08:53.129Z,6.00
2017-10-21T05:09:53.837Z,5.00
2017-10-21T05:10:54.560Z,4.00
2017-10-21T05:11:55.268Z,4.00
2017-10-21T05:12:55.989Z,4.00
2017-10-21T05:13:56.698Z,4.00
2017-10-21T05:14:57.408Z,4.00
2017-10-21T05:15:58.116Z,6.00
2017-10-21T05:16:58.825Z,6.00
2017-10-21T05:17:59.534Z,4.00
2017-10-21T05:19:00.242Z,4.00
2017-10-21T05:20:00.949Z,4.00
2017-10-21T05:21:01.659Z,3.00
2017-10-21T05:22:02.367Z,4.00
2017-10-21T05:23:03.078Z,4.00
2017-10-21T05:24:03.787Z,5.00
2017-10-21T05:25:04.496Z,4.00
2017-10-21T05:26:05.205Z,5.00
2017-10-21T05:27:05.914Z,3.00
2017-10-21T05:28:06.628Z,3.00
2017-10-21T05:29:07.346Z,4.00
2017-10-21T05:30:08.058Z,5.00
2017-10-21T05:31:08.769Z,6.00
2017-10-21T05:32:09.483Z,4.00
2017-10-21T05:33:10.191Z,4.00
2017-10-21T05:34:10.901Z,4.00
2017-10-21T05:35:11.610Z,6.00
2017-10-21T05:36:12.333Z,3.00
2017-10-21T05:37:13.040Z,5.00
2017-10-21T05:38:13.750Z,4.00
2017-10-21T05:39:14.462Z,5.00
2017-10-21T05:40:15.169Z,4.00
2017-10-21T05:41:15.879Z,4.00
2017-10-21T05:42:16.597Z,3.00
2017-10-21T05:43:17.306Z,4.00
2017-10-21T05:44:18.017Z,4.00
2017-10-21T05:45:18.729Z,4.00
2017-10-21T05:46:19.456Z,5.00
2017-10-21T05:47:20.166Z,7.00
2017-10-21T05:48:20.877Z,3.00
2017-10-21T05:49:21.600Z,4.00
2017-10-21T05:50:22.312Z,4.00
2017-10-21T05:51:23.022Z,4.00
2017-10-21T05:52:23.736Z,10.00
2017-10-21T05:53:24.446Z,4.00
2017-10-21T05:54:25.162Z,5.00
2017-10-21T05:55:25.868Z,4.00
2017-10-21T05:56:26.577Z,4.00
2017-10-21T05:57:27.288Z,4.00
2017-10-21T05:58:28.002Z,4.00
2017-10-21T05:59:28.714Z,6.00
2017-10-21T06:00:29.428Z,3.00
2017-10-21T06:01:30.147Z,5.00
2017-10-21T06:02:30.852Z,4.00
2017-10-21T06:03:31.561Z,5.00
2017-10-21T06:04:32.272Z,4.00
2017-10-21T06:05:32.983Z,3.00
2017-10-21T06:06:33.692Z,4.00
2017-10-21T06:07:34.404Z,4.00
2017-10-21T06:08:35.114Z,4.00
2017-10-21T06:09:35.839Z,4.00
2017-10-21T06:10:36.551Z,4.00
2017-10-21T06:11:37.267Z,4.00
2017-10-21T06:12:37.979Z,5.00
2017-10-21T06:13:38.694Z,4.00
2017-10-21T06:14:39.405Z,3.00
2017-10-21T06:15:40.117Z,4.00
2017-10-21T06:16:40.840Z,4.00
2017-10-21T06:17:41.553Z,5.00
2017-10-21T06:18:42.265Z,5.00
2017-10-21T06:19:42.977Z,4.00
2017-10-21T06:20:43.705Z,4.00
2017-10-21T06:21:44.429Z,5.00
2017-10-21T06:22:45.156Z,4.00
2017-10-21T06:23:45.869Z,4.00
2017-10-21T06:24:46.582Z,5.00
2017-10-21T06:25:47.294Z,5.00
2017-10-21T06:26:48.007Z,5.00
2017-10-21T06:27:48.721Z,5.00
2017-10-21T06:28:49.434Z,5.00
2017-10-21T06:29:50.146Z,5.00
2017-10-21T06:30:50.862Z,5.00
2017-10-21T06:31:51.577Z,5.00
2017-10-21T06:32:52.294Z,6.00
2017-10-21T06:33:53.020Z,5.00
2017-10-21T06:34:53.734Z,6.00
2017-10-21T06:35:54.446Z,4.00
2017-10-21T06:36:55.175Z,5.00
2017-10-21T06:37:55.903Z,5.00
2017-10-21T06:38:56.617Z,6.00
2017-10-21T06:39:57.330Z,6.00
2017-10-21T06:40:58.045Z,5.00
2017-10-21T06:41:58.759Z,5.00
2017-10-21T06:42:59.474Z,6.00
2017-10-21T06:44:00.187Z,5.00
2017-10-21T06:45:00.901Z,5.00
2017-10-21T06:46:01.620Z,6.00
2017-10-21T06:47:02.331Z,5.00
2017-10-21T06:48:03.045Z,6.00
2017-10-21T06:49:03.758Z,4.00
2017-10-21T06:50:04.486Z,5.00
2017-10-21T06:51:05.213Z,5.00
2017-10-21T06:52:05.927Z,5.00
2017-10-21T06:53:06.641Z,6.00
2017-10-21T06:54:07.357Z,5.00
2017-10-21T06:55:08.073Z,6.00
2017-10-21T06:56:08.787Z,6.00
2017-10-21T06:57:09.517Z,5.00
2017-10-21T06:58:10.214Z,5.00
2017-10-21T06:59:10.926Z,5.00
2017-10-21T07:00:11.642Z,7.00
2017-10-21T07:01:12.357Z,6.00
2017-10-21T07:02:13.073Z,10.00
2017-10-21T07:03:13.788Z,6.00
2017-10-21T07:04:14.503Z,4.00
2017-10-21T07:05:15.220Z,6.00
2017-10-21T07:06:15.934Z,4.00
2017-10-21T07:07:16.648Z,6.00
2017-10-21T07:08:17.363Z,5.00
2017-10-21T07:09:18.079Z,6.00
2017-10-21T07:10:18.795Z,5.00
2017-10-21T07:11:19.509Z,5.00
2017-10-21T07:12:20.223Z,5.00
2017-10-21T07:13:20.940Z,5.00
2017-10-21T07:14:21.662Z,7.00
2017-10-21T07:15:22.372Z,6.00
2017-10-21T07:16:23.100Z,6.00
2017-10-21T07:17:23.833Z,6.00
2017-10-21T07:18:24.559Z,6.00
2017-10-21T07:19:25.273Z,6.00
2017-10-21T07:20:25.988Z,4.00
2017-10-21T07:21:26.702Z,4.00
2017-10-21T07:22:27.421Z,5.00
2017-10-21T07:23:28.147Z,5.00
2017-10-21T07:24:28.863Z,4.00
2017-10-21T07:25:29.578Z,5.00
2017-10-21T07:26:30.311Z,4.00
2017-10-21T07:27:31.037Z,4.00
2017-10-21T07:28:31.750Z,4.00
2017-10-21T07:29:32.463Z,5.00
2017-10-21T07:30:33.201Z,4.00
2017-10-21T07:31:33.894Z,5.00
2017-10-21T07:32:34.609Z,5.00
2017-10-21T07:33:35.322Z,6.00
2017-10-21T07:34:36.036Z,5.00
2017-10-21T07:35:36.749Z,5.00
2017-10-21T07:36:37.462Z,4.00
2017-10-21T07:37:38.177Z,6.00
2017-10-21T07:38:38.892Z,5.00
2017-10-21T07:39:39.606Z,6.00
2017-10-21T07:40:40.321Z,4.00
2017-10-21T07:41:41.041Z,6.00
2017-10-21T07:42:41.763Z,5.00
2017-10-21T07:43:42.478Z,5.00
2017-10-21T07:44:43.193Z,4.00
2017-10-21T07:45:43.913Z,3.00
2017-10-21T07:46:44.638Z,5.00
2017-10-21T07:47:45.350Z,5.00
2017-10-21T07:48:46.065Z,4.00
2017-10-21T07:49:46.792Z,6.00
2017-10-21T07:50:47.507Z,5.00
2017-10-21T07:51:48.222Z,4.00
2017-10-21T07:52:48.937Z,5.00
2017-10-21T07:53:49.663Z,5.00
2017-10-21T07:54:50.393Z,7.00
2017-10-21T07:55:51.108Z,5.00
2017-10-21T07:56:51.823Z,6.00
2017-10-21T07:57:52.537Z,7.00
2017-10-21T07:58:53.266Z,6.00
2017-10-21T07:59:53.979Z,4.00
2017-10-21T08:00:54.704Z,4.00
2017-10-21T08:01:55.420Z,4.00
2017-10-21T08:02:56.133Z,5.00
2017-10-21T08:03:56.850Z,15.00
2017-10-21T08:04:57.565Z,5.00
2017-10-21T08:05:58.280Z,5.00
2017-10-21T08:06:59.008Z,5.00
2017-10-21T08:07:59.722Z,6.00
2017-10-21T08:09:00.438Z,6.00
2017-10-21T08:10:01.153Z,6.00
2017-10-21T08:11:01.882Z,4.00
2017-10-21T08:12:02.597Z,6.00
2017-10-21T08:13:03.310Z,7.00
2017-10-21T08:14:04.025Z,5.00
2017-10-21T08:15:04.742Z,5.00
2017-10-21T08:16:05.457Z,5.00
2017-10-21T08:17:06.170Z,4.00
2017-10-21T08:18:06.898Z,4.00
2017-10-21T08:19:07.626Z,5.00
2017-10-21T08:20:08.341Z,4.00
2017-10-21T08:21:09.054Z,5.00
2017-10-21T08:22:09.768Z,4.00
2017-10-21T08:23:10.485Z,4.00
2017-10-21T08:24:11.200Z,5.00
2017-10-21T08:25:11.917Z,5.00
2017-10-21T08:26:12.630Z,5.00
2017-10-21T08:27:13.356Z,5.00
2017-10-21T08:28:14.071Z,5.00
2017-10-21T08:29:14.789Z,4.00
2017-10-21T08:30:15.504Z,4.00
2017-10-21T08:31:16.217Z,4.00
2017-10-21T08:32:16.931Z,5.00
2017-10-21T08:33:17.647Z,7.00
2017-10-21T08:34:18.363Z,3.00
2017-10-21T08:35:19.080Z,5.00
2017-10-21T08:36:19.794Z,4.00
2017-10-21T08:37:20.512Z,4.00
2017-10-21T08:38:21.228Z,5.00
2017-10-21T08:39:21.955Z,5.00
2017-10-21T08:40:22.670Z,5.00
2017-10-21T08:41:23.386Z,5.00
2017-10-21T08:42:24.112Z,6.00
2017-10-21T08:43:24.820Z,5.00
2017-10-21T08:44:25.535Z,6.00
2017-10-21T08:45:26.250Z,6.00
2017-10-21T08:46:26.977Z,6.00
2017-10-21T08:47:27.693Z,6.00
2017-10-21T08:48:28.423Z,8.00
2017-10-21T08:49:29.138Z,5.00
2017-10-21T08:50:29.853Z,7.00
2017-10-21T08:51:30.568Z,5.00
2017-10-21T08:52:31.284Z,6.00
2017-10-21T08:53:32.000Z,6.00
2017-10-21T08:54:32.713Z,6.00
2017-10-21T08:55:33.427Z,8.00
2017-10-21T08:56:34.146Z,6.00
2017-10-21T08:57:34.862Z,7.00
2017-10-21T08:58:35.580Z,6.00
2017-10-21T08:59:36.308Z,6.00
2017-10-21T09:00:37.047Z,5.00
2017-10-21T09:01:37.774Z,5.00
2017-10-21T09:02:38.489Z,7.00
2017-10-21T09:03:39.221Z,5.00
2017-10-21T09:04:39.935Z,5.00
2017-10-21T09:05:40.653Z,6.00
2017-10-21T09:06:41.366Z,7.00
2017-10-21T09:07:42.081Z,10.00
2017-10-21T09:08:42.796Z,5.00
2017-10-21T09:09:43.526Z,6.00
2017-10-21T09:10:44.229Z,6.00
2017-10-21T09:11:44.946Z,6.00
2017-10-21T09:12:45.662Z,7.00
2017-10-21T09:13:46.378Z,6.00
2017-10-21T09:14:47.107Z,7.00
2017-10-21T09:15:47.829Z,6.00
2017-10-21T09:16:48.536Z,6.00
2017-10-21T09:17:49.264Z,7.00
2017-10-21T09:18:49.980Z,5.00
2017-10-21T09:19:50.696Z,6.00
2017-10-21T09:20:51.411Z,6.00
2017-10-21T09:21:52.127Z,6.00
2017-10-21T09:22:52.842Z,7.00
2017-10-21T09:23:53.557Z,6.00
2017-10-21T09:24:54.274Z,8.00
2017-10-21T09:25:55.001Z,6.00
2017-10-21T09:26:55.716Z,6.00
2017-10-21T09:27:56.432Z,6.00
2017-10-21T09:28:57.146Z,8.00
2017-10-21T09:29:57.862Z,7.00
2017-10-21T09:30:58.580Z,7.00
2017-10-21T09:31:59.295Z,6.00
2017-10-21T09:33:00.011Z,7.00
2017-10-21T09:34:00.740Z,7.00
2017-10-21T09:35:01.462Z,6.00
2017-10-21T09:36:02.217Z,8.00
2017-10-21T09:37:02.930Z,9.00
2017-10-21T09:38:03.646Z,8.00
2017-10-21T09:39:04.361Z,6.00
2017-10-21T09:40:05.077Z,6.00
2017-10-21T09:41:05.799Z,7.00
2017-10-21T09:42:06.511Z,10.00
2017-10-21T09:43:07.241Z,7.00
2017-10-21T09:44:07.954Z,7.00
2017-10-21T09:45:08.674Z,7.00
2017-10-21T09:46:09.403Z,6.00
2017-10-21T09:47:10.116Z,6.00
2017-10-21T09:48:10.832Z,6.00
2017-10-21T09:49:11.549Z,5.00
2017-10-21T09:50:12.280Z,7.00
2017-10-21T09:51:12.998Z,7.00
2017-10-21T09:52:13.713Z,7.00
2017-10-21T09:53:14.430Z,8.00
2017-10-21T09:54:15.158Z,7.00
2017-10-21T09:55:15.876Z,7.00
2017-10-21T09:56:16.591Z,8.00
2017-10-21T09:57:17.305Z,6.00
2017-10-21T09:58:18.037Z,8.00
2017-10-21T09:59:18.765Z,7.00
2017-10-21T10:00:19.482Z,7.00
2017-10-21T10:01:20.198Z,8.00
2017-10-21T10:02:20.915Z,8.00
2017-10-21T10:03:21.644Z,6.00
2017-10-21T10:04:22.362Z,9.00
2017-10-21T10:05:23.078Z,8.00
2017-10-21T10:06:23.808Z,9.00
2017-10-21T10:07:24.524Z,7.00
2017-10-21T10:08:25.242Z,7.00
2017-10-21T10:09:25.962Z,8.00
2017-10-21T10:10:26.676Z,6.00
2017-10-21T10:11:27.405Z,7.00
2017-10-21T10:12:28.120Z,7.00
2017-10-21T10:13:28.852Z,8.00
2017-10-21T10:14:29.568Z,12.00
2017-10-21T10:15:30.284Z,9.00
2017-10-21T10:16:31.000Z,9.00
2017-10-21T10:17:31.730Z,8.00
2017-10-21T10:18:32.446Z,19.00
2017-10-21T10:19:33.163Z,8.00
2017-10-21T10:20:33.879Z,8.00
2017-10-21T10:21:34.610Z,8.00
2017-10-21T10:22:35.330Z,11.00
2017-10-21T10:23:36.045Z,10.00
2017-10-21T10:24:36.761Z,8.00
2017-10-21T10:25:37.477Z,8.00
2017-10-21T10:26:38.207Z,7.00
2017-10-21T10:27:38.924Z,9.00
2017-10-21T10:28:39.641Z,10.00
2017-10-21T10:29:40.357Z,7.00
2017-10-21T10:30:41.077Z,8.00
2017-10-21T10:31:41.789Z,8.00
2017-10-21T10:32:42.506Z,8.00
2017-10-21T10:33:43.223Z,8.00
2017-10-21T10:34:43.950Z,7.00
2017-10-21T10:35:44.666Z,8.00
2017-10-21T10:36:45.399Z,8.00
2017-10-21T10:37:46.113Z,8.00
2017-10-21T10:38:46.830Z,9.00
2017-10-21T10:39:47.545Z,7.00
2017-10-21T10:40:48.275Z,10.00
2017-10-21T10:41:48.992Z,8.00
2017-10-21T10:42:49.708Z,9.00
2017-10-21T10:43:50.423Z,9.00
2017-10-21T10:44:51.141Z,9.00
2017-10-21T10:45:51.858Z,8.00
2017-10-21T10:46:52.574Z,9.00
2017-10-21T10:47:53.305Z,9.00
2017-10-21T10:48:54.033Z,7.00
2017-10-21T10:49:54.762Z,9.00
2017-10-21T10:50:55.479Z,8.00
2017-10-21T10:51:56.197Z,8.00
2017-10-21T10:52:56.921Z,8.00
2017-10-21T10:53:57.633Z,7.00
2017-10-21T10:54:58.363Z,9.00
2017-10-21T10:55:59.095Z,8.00
2017-10-21T10:56:59.824Z,9.00
2017-10-21T10:58:00.541Z,10.00
2017-10-21T10:59:01.259Z,8.00
2017-10-21T11:00:01.980Z,9.00
2017-10-21T11:01:02.694Z,10.00
2017-10-21T11:02:03.412Z,9.00
2017-10-21T11:03:04.143Z,9.00
2017-10-21T11:04:04.864Z,11.00
2017-10-21T11:05:05.579Z,9.00
2017-10-21T11:06:06.299Z,10.00
2017-10-21T11:07:07.016Z,9.00
2017-10-21T11:08:07.733Z,9.00
2017-10-21T11:09:08.451Z,8.00
2017-10-21T11:10:09.169Z,11.00
2017-10-21T11:11:09.886Z,10.00
2017-10-21T11:12:10.604Z,9.00
2017-10-21T11:13:11.322Z,9.00
2017-10-21T11:14:12.038Z,8.00
2017-10-21T11:15:12.759Z,10.00
2017-10-21T11:16:13.476Z,11.00
2017-10-21T11:17:14.191Z,8.00
2017-10-21T11:18:14.909Z,10.00
2017-10-21T11:19:15.642Z,9.00
2017-10-21T11:20:16.371Z,10.00
2017-10-21T11:21:17.089Z,10.00
2017-10-21T11:22:17.806Z,9.00
2017-10-21T11:23:18.526Z,9.00
2017-10-21T11:24:19.242Z,9.00
2017-10-21T11:25:19.972Z,9.00
2017-10-21T11:26:20.704Z,9.00
2017-10-21T11:27:21.433Z,10.00
2017-10-21T11:28:22.152Z,10.00
2017-10-21T11:29:22.871Z,9.00
2017-10-21T11:30:23.589Z,7.00
2017-10-21T11:31:24.309Z,10.00
2017-10-21T11:32:25.025Z,8.00
2017-10-21T11:33:25.740Z,9.00
2017-10-21T11:34:26.456Z,9.00
2017-10-21T11:35:27.171Z,7.00
2017-10-21T11:36:27.895Z,9.00
2017-10-21T11:37:28.606Z,9.00
2017-10-21T11:38:29.336Z,10.00
2017-10-21T11:39:30.055Z,11.00
2017-10-21T11:40:30.775Z,10.00
2017-10-21T11:41:31.494Z,11.00
2017-10-21T11:42:32.214Z,10.00
2017-10-21T11:43:32.935Z,10.00
2017-10-21T11:44:33.653Z,10.00
2017-10-21T11:45:34.371Z,8.00
2017-10-21T11:46:35.087Z,9.00
2017-10-21T11:47:35.804Z,9.00
2017-10-21T11:48:36.522Z,9.00
2017-10-21T11:49:37.253Z,7.00
2017-10-21T11:50:37.972Z,8.00
2017-10-21T11:51:38.688Z,10.00
2017-10-21T11:52:39.419Z,9.00
2017-10-21T11:53:40.138Z,9.00
2017-10-21T11:54:40.868Z,8.00
2017-10-21T11:55:41.587Z,10.00
2017-10-21T11:56:42.307Z,8.00
2017-10-21T11:57:43.025Z,8.00
2017-10-21T11:58:43.744Z,10.00
2017-10-21T11:59:44.462Z,8.00
2017-10-21T12:00:45.183Z,10.00
2017-10-21T12:01:45.915Z,9.00
2017-10-21T12:02:46.646Z,8.00
2017-10-21T12:03:47.364Z,9.00
2017-10-21T12:04:48.083Z,10.00
2017-10-21T12:05:48.802Z,10.00
2017-10-21T12:06:49.534Z,8.00
2017-10-21T12:07:50.253Z,7.00
2017-10-21T12:08:50.986Z,9.00
2017-10-21T12:09:51.705Z,10.00
2017-10-21T12:10:52.422Z,9.00
2017-10-21T12:11:53.158Z,8.00
2017-10-21T12:12:53.889Z,10.00
2017-10-21T12:13:54.609Z,10.00
2017-10-21T12:14:55.329Z,9.00
2017-10-21T12:15:56.052Z,8.00
2017-10-21T12:16:56.766Z,6.00
2017-10-21T12:17:57.484Z,9.00
2017-10-21T12:18:58.205Z,9.00
2017-10-21T12:19:58.924Z,9.00
2017-10-21T12:20:59.644Z,7.00
2017-10-21T12:22:00.364Z,9.00
2017-10-21T12:23:01.097Z,8.00
2017-10-21T12:24:01.815Z,7.00
2017-10-21T12:25:02.536Z,7.00
2017-10-21T12:26:03.267Z,8.00
2017-10-21T12:27:03.987Z,8.00
2017-10-21T12:28:04.722Z,8.00
2017-10-21T12:29:05.443Z,9.00
2017-10-21T12:30:06.175Z,9.00
2017-10-21T12:31:06.899Z,9.00
2017-10-21T12:32:07.632Z,8.00
2017-10-21T12:33:08.351Z,8.00
2017-10-21T12:34:09.071Z,8.00
2017-10-21T12:35:09.808Z,8.00
2017-10-21T12:36:10.540Z,7.00
2017-10-21T12:37:11.260Z,9.00
2017-10-21T12:38:11.979Z,9.00
2017-10-21T12:39:12.698Z,8.00
2017-10-21T12:40:13.417Z,8.00
2017-10-21T12:41:14.137Z,7.00
2017-10-21T12:42:14.859Z,9.00
2017-10-21T12:43:15.579Z,8.00
2017-10-21T12:44:16.310Z,8.00
2017-10-21T12:45:17.030Z,7.00
2017-10-21T12:46:17.751Z,9.00
2017-10-21T12:47:18.473Z,8.00
2017-10-21T12:48:19.215Z,8.00
2017-10-21T12:49:19.938Z,8.00
2017-10-21T12:50:20.672Z,8.00
2017-10-21T12:51:21.391Z,9.00
2017-10-21T12:52:22.113Z,8.00
2017-10-21T12:53:22.839Z,8.00
2017-10-21T12:54:23.550Z,9.00
2017-10-21T12:55:24.271Z,7.00
2017-10-21T12:56:24.989Z,7.00
2017-10-21T12:57:25.709Z,7.00
2017-10-21T12:58:26.433Z,8.00
2017-10-21T12:59:27.158Z,9.00
2017-10-21T13:00:27.888Z,8.00
2017-10-21T13:01:28.609Z,7.00
2017-10-21T13:02:29.332Z,6.00
2017-10-21T13:03:30.054Z,8.00
2017-10-21T13:04:30.793Z,7.00
2017-10-21T13:05:31.522Z,6.00
2017-10-21T13:06:32.255Z,7.00
2017-10-21T13:07:32.975Z,7.00
2017-10-21T13:08:33.698Z,7.00
2017-10-21T13:09:34.419Z,7.00
2017-10-21T13:10:35.139Z,7.00
2017-10-21T13:11:35.869Z,9.00
2017-10-21T13:12:36.597Z,8.00
2017-10-21T13:13:37.319Z,7.00
2017-10-21T13:14:38.053Z,7.00
2017-10-21T13:15:38.773Z,7.00
2017-10-21T13:16:39.496Z,6.00
2017-10-21T13:17:40.217Z,7.00
2017-10-21T13:18:40.942Z,6.00
2017-10-21T13:19:41.657Z,6.00
2017-10-21T13:20:42.378Z,7.00
2017-10-21T13:21:43.098Z,8.00
2017-10-21T13:22:43.820Z,6.00
2017-10-21T13:23:44.540Z,6.00
2017-10-21T13:24:45.274Z,5.00
2017-10-21T13:25:45.997Z,6.00
2017-10-21T13:26:46.718Z,6.00
2017-10-21T13:27:47.439Z,5.00